createdAt,value
2023-05-05T00:01:51.502Z,12.33
2023-05-05T00:04:54.296Z,12.20
2023-05-05T00:07:56.586Z,12.03
2023-05-05T00:10:59.372Z,11.88
2023-05-05T00:14:01.792Z,11.91
2023-05-05T00:17:04.457Z,11.77
2023-05-05T00:20:07.708Z,11.67
2023-05-05T00:23:10.673Z,11.61
2023-05-05T00:26:13.222Z,11.68
2023-05-05T00:29:16.738Z,11.55
2023-05-05T00:32:19.565Z,11.54
2023-05-05T00:35:22.246Z,11.41
2023-05-05T00:38:24.617Z,11.37
2023-05-05T00:41:27.313Z,11.32
2023-05-05T00:44:38.214Z,11.26
2023-05-05T00:47:46.484Z,11.32
2023-05-05T00:50:48.960Z,11.18
2023-05-05T00:53:51.810Z,11.10
2023-05-05T00:56:54.222Z,11.22
2023-05-05T00:59:58.821Z,11.16
2023-05-05T01:03:01.527Z,11.04
2023-05-05T01:06:22.937Z,10.95
2023-05-05T01:09:34.454Z,10.95
2023-05-05T01:12:46.062Z,10.79
2023-05-05T01:15:53.514Z,10.71
2023-05-05T01:19:20.601Z,10.67
2023-05-05T01:22:24.747Z,10.67
2023-05-05T01:25:42.428Z,10.64
2023-05-05T01:29:00.121Z,10.58
2023-05-05T01:32:07.353Z,10.50
2023-05-05T01:35:15.307Z,10.54
2023-05-05T01:38:21.711Z,10.54
2023-05-05T01:41:26.494Z,10.46
2023-05-05T01:44:30.755Z,10.51
2023-05-05T01:47:33.727Z,10.49
2023-05-05T01:50:36.916Z,10.37
2023-05-05T01:53:39.715Z,10.28
2023-05-05T01:56:43.049Z,10.29
2023-05-05T01:59:45.822Z,10.21
2023-05-05T02:02:49.373Z,10.14
2023-05-05T02:05:53.222Z,10.09
2023-05-05T02:08:58.413Z,10.09
2023-05-05T02:12:02.299Z,10.06
2023-05-05T02:15:04.982Z,10.03
2023-05-05T02:18:08.052Z,10.00
2023-05-05T02:21:10.755Z,10.04
2023-05-05T02:24:13.577Z,10.03
2023-05-05T02:27:17.824Z,10.06
2023-05-05T02:30:20.912Z,10.00
2023-05-05T02:33:25.438Z,9.93
2023-05-05T02:36:29.734Z,9.87
2023-05-05T02:39:37.734Z,9.82
2023-05-05T02:42:44.967Z,9.85
2023-05-05T02:45:47.719Z,9.78
2023-05-05T02:48:50.828Z,9.72
2023-05-05T02:51:53.326Z,9.69
2023-05-05T02:54:56.556Z,9.64
2023-05-05T02:57:58.970Z,9.62
2023-05-05T03:01:11.631Z,9.58
2023-05-05T03:04:16.559Z,9.57
2023-05-05T03:07:27.704Z,9.56
2023-05-05T03:10:34.917Z,9.53
2023-05-05T03:13:40.633Z,9.53
2023-05-05T03:16:43.969Z,9.46
2023-05-05T03:19:47.807Z,9.47
2023-05-05T03:22:50.825Z,9.47
2023-05-05T03:25:53.555Z,9.43
2023-05-05T03:28:56.386Z,9.40
2023-05-05T03:32:01.455Z,9.37
2023-05-05T03:35:04.769Z,9.41
2023-05-05T03:38:07.976Z,9.41
2023-05-05T03:41:10.484Z,9.44
2023-05-05T03:44:13.162Z,9.39
2023-05-05T03:47:15.510Z,9.38
2023-05-05T03:50:18.389Z,9.41
2023-05-05T03:53:23.147Z,9.52
2023-05-05T03:56:26.691Z,9.57
2023-05-05T03:59:29.119Z,9.68
2023-05-05T04:02:32.178Z,9.71
2023-05-05T04:05:35.955Z,9.82
2023-05-05T04:08:38.602Z,9.81
2023-05-05T04:11:41.313Z,9.85
2023-05-05T04:14:44.600Z,9.95
2023-05-05T04:17:47.501Z,10.01
2023-05-05T04:20:50.568Z,10.13
2023-05-05T04:23:53.832Z,10.27
2023-05-05T04:26:56.582Z,10.36
2023-05-05T04:29:59.867Z,10.47
2023-05-05T04:33:02.357Z,10.56
2023-05-05T04:36:05.335Z,10.61
2023-05-05T04:39:08.708Z,10.75
2023-05-05T04:42:12.031Z,10.77
2023-05-05T04:45:14.592Z,10.78
2023-05-05T04:48:17.584Z,10.95
2023-05-05T04:51:20.079Z,11.11
2023-05-05T04:54:22.816Z,11.25
2023-05-05T04:57:26.595Z,11.39
2023-05-05T05:00:29.462Z,11.52
2023-05-05T05:03:32.128Z,11.69
2023-05-05T05:06:34.914Z,11.88
2023-05-05T05:09:37.795Z,11.91
2023-05-05T05:12:41.473Z,12.08
2023-05-05T05:15:43.796Z,12.19
2023-05-05T05:18:47.496Z,12.32
2023-05-05T05:21:50.250Z,12.43
2023-05-05T05:24:53.452Z,12.63
2023-05-05T05:31:05.376Z,13.03
2023-05-05T05:34:07.878Z,13.21
2023-05-05T05:37:11.094Z,13.35
2023-05-05T05:40:13.931Z,13.55
2023-05-05T05:43:16.866Z,13.78
2023-05-05T05:46:19.888Z,13.90
2023-05-05T05:49:22.781Z,13.96
2023-05-05T05:52:25.496Z,14.18
2023-05-05T05:55:28.374Z,14.48
2023-05-05T05:58:30.834Z,14.70
2023-05-05T06:01:35.260Z,14.82
2023-05-05T06:04:38.984Z,14.98
2023-05-05T06:07:41.519Z,15.23
2023-05-05T06:10:44.801Z,15.37
2023-05-05T06:13:47.914Z,15.64
2023-05-05T06:16:52.201Z,15.93
2023-05-05T06:19:54.849Z,16.23
2023-05-05T06:22:57.593Z,16.30
2023-05-05T06:26:01.014Z,16.38
2023-05-05T06:29:03.729Z,16.47
2023-05-05T06:32:08.375Z,16.73
2023-05-05T06:35:11.238Z,16.84
2023-05-05T06:38:13.640Z,17.40
2023-05-05T06:41:16.388Z,17.77
2023-05-05T06:44:18.701Z,18.17
2023-05-05T06:47:21.316Z,18.99
2023-05-05T06:50:23.754Z,22.53
2023-05-05T06:53:26.389Z,26.38
2023-05-05T06:56:28.668Z,29.16
2023-05-05T06:59:32.520Z,28.36
2023-05-05T07:02:35.349Z,31.38
2023-05-05T07:05:38.498Z,33.09
2023-05-05T07:08:41.018Z,33.75
2023-05-05T07:11:43.914Z,34.14
2023-05-05T07:14:46.518Z,34.46
2023-05-05T07:17:49.262Z,34.97
2023-05-05T07:20:51.654Z,33.84
2023-05-05T07:23:54.827Z,35.30
2023-05-05T07:26:57.513Z,35.37
2023-05-05T07:30:00.235Z,34.13
2023-05-05T07:33:02.936Z,35.26
2023-05-05T07:36:05.889Z,35.34
2023-05-05T07:39:08.362Z,34.25
2023-05-05T07:42:11.354Z,35.22
2023-05-05T07:45:13.766Z,35.89
2023-05-05T07:48:16.612Z,36.80
2023-05-05T07:51:18.969Z,36.83
2023-05-05T07:54:21.811Z,36.21
2023-05-05T07:57:24.242Z,37.27
2023-05-05T08:00:27.085Z,37.72
2023-05-05T08:03:29.974Z,38.12
2023-05-05T08:06:32.520Z,37.92
2023-05-05T08:09:35.529Z,38.02
2023-05-05T08:12:38.059Z,36.98
2023-05-05T08:15:41.062Z,36.15
2023-05-05T08:18:43.496Z,36.03
2023-05-05T08:21:46.069Z,36.06
2023-05-05T08:24:49.003Z,37.27
2023-05-05T08:27:51.688Z,38.28
2023-05-05T08:30:54.294Z,36.81
2023-05-05T08:33:56.942Z,37.22
2023-05-05T08:36:59.269Z,36.12
2023-05-05T08:40:01.898Z,36.26
2023-05-05T08:43:05.012Z,35.99
2023-05-05T08:46:10.568Z,37.11
2023-05-05T08:49:16.089Z,36.51
2023-05-05T08:52:22.433Z,36.25
2023-05-05T08:55:26.631Z,34.42
2023-05-05T08:58:30.558Z,34.34
2023-05-05T09:01:33.817Z,34.72
2023-05-05T09:04:36.874Z,34.70
2023-05-05T09:07:41.406Z,34.67
2023-05-05T09:10:44.699Z,34.59
2023-05-05T09:13:48.420Z,31.41
2023-05-05T09:16:51.400Z,29.09
2023-05-05T09:20:04.764Z,27.59
2023-05-05T09:23:11.550Z,25.81
2023-05-05T09:26:14.469Z,25.37
2023-05-05T09:29:18.431Z,25.15
2023-05-05T09:32:21.105Z,25.27
2023-05-05T09:35:24.101Z,24.79
2023-05-05T09:38:26.775Z,24.67
2023-05-05T09:41:36.682Z,24.54
2023-05-05T09:44:40.156Z,24.92
2023-05-05T09:47:42.818Z,24.94
2023-05-05T09:50:45.282Z,25.12
2023-05-05T09:53:48.014Z,24.52
2023-05-05T09:56:50.865Z,24.45
2023-05-05T10:00:00.189Z,24.14
2023-05-05T10:03:03.109Z,23.06
2023-05-05T10:06:07.905Z,23.22
2023-05-05T10:09:10.833Z,23.43
2023-05-05T10:12:13.522Z,23.93
2023-05-05T10:15:16.017Z,23.98
2023-05-05T10:18:37.137Z,23.83
2023-05-05T10:21:42.088Z,24.06
2023-05-05T10:24:48.611Z,24.23
2023-05-05T10:27:53.048Z,24.54
2023-05-05T10:30:56.807Z,24.56
2023-05-05T10:34:16.336Z,24.73
2023-05-05T10:37:21.181Z,24.72
2023-05-05T10:40:23.703Z,24.81
2023-05-05T10:43:27.815Z,24.74
2023-05-05T10:46:30.417Z,24.90
2023-05-05T10:49:37.314Z,24.89
2023-05-05T10:52:53.330Z,24.88
2023-05-05T10:56:05.897Z,24.59
2023-05-05T10:59:27.015Z,24.57
2023-05-05T11:02:30.453Z,24.96
2023-05-05T11:05:32.891Z,24.70
2023-05-05T11:08:36.620Z,24.05
2023-05-05T11:11:57.553Z,23.89
2023-05-05T11:15:18.993Z,23.94
2023-05-05T11:18:43.285Z,24.23
2023-05-05T11:22:02.546Z,24.49
2023-05-05T11:25:24.800Z,24.99
2023-05-05T11:28:30.950Z,24.94
2023-05-05T11:31:33.606Z,24.67
2023-05-05T11:34:36.431Z,24.94
2023-05-05T11:37:39.564Z,25.00
2023-05-05T11:40:44.977Z,24.96
2023-05-05T11:43:47.458Z,25.37
2023-05-05T11:46:53.286Z,24.64
2023-05-05T11:49:55.749Z,24.83
2023-05-05T11:52:58.825Z,25.06
2023-05-05T11:56:08.257Z,24.95
2023-05-05T11:59:11.628Z,25.17
2023-05-05T12:02:18.243Z,25.34
2023-05-05T12:05:21.211Z,24.97
2023-05-05T12:08:24.202Z,25.05
2023-05-05T12:11:27.036Z,25.05
2023-05-05T12:14:29.970Z,25.41
2023-05-05T12:17:44.807Z,25.38
2023-05-05T12:20:47.792Z,25.19
2023-05-05T12:23:50.841Z,25.30
2023-05-05T12:26:53.098Z,25.08
2023-05-05T12:29:56.622Z,24.30
2023-05-05T12:33:05.942Z,24.94
2023-05-05T12:36:09.316Z,25.42
2023-05-05T12:39:12.057Z,25.18
2023-05-05T12:42:14.994Z,25.19
2023-05-05T12:45:20.338Z,25.29
2023-05-05T12:48:23.099Z,25.23
2023-05-05T12:51:27.119Z,25.40
2023-05-05T12:54:29.932Z,25.47
2023-05-05T12:57:32.242Z,25.51
2023-05-05T13:00:35.355Z,25.24
2023-05-05T13:03:37.713Z,25.51
2023-05-05T13:06:41.202Z,25.49
2023-05-05T13:09:43.943Z,25.63
2023-05-05T13:12:47.682Z,24.85
2023-05-05T13:15:50.112Z,24.91
2023-05-05T13:18:53.645Z,25.04
2023-05-05T13:21:56.771Z,24.97
2023-05-05T13:24:59.414Z,24.97
2023-05-05T13:28:01.784Z,25.04
2023-05-05T13:31:04.565Z,24.60
2023-05-05T13:34:06.988Z,24.77
2023-05-05T13:37:09.816Z,25.25
2023-05-05T13:40:13.399Z,25.63
2023-05-05T13:43:16.095Z,25.62
2023-05-05T13:46:20.163Z,25.46
2023-05-05T13:49:23.057Z,25.16
2023-05-05T13:52:25.413Z,24.88
2023-05-05T13:55:28.410Z,24.89
2023-05-05T13:58:31.051Z,24.99
2023-05-05T14:01:33.854Z,24.92
2023-05-05T14:04:37.525Z,24.96
2023-05-05T14:07:42.054Z,24.61
2023-05-05T14:10:46.754Z,24.29
2023-05-05T14:13:50.431Z,23.84
2023-05-05T14:16:53.230Z,23.79
2023-05-05T14:19:56.229Z,23.98
2023-05-05T14:22:58.946Z,24.07
2023-05-05T14:26:01.499Z,24.11
2023-05-05T14:29:04.551Z,24.28
2023-05-05T14:32:06.993Z,24.36
2023-05-05T14:35:09.935Z,24.51
2023-05-05T14:38:12.393Z,24.53
2023-05-05T14:41:15.056Z,24.44
2023-05-05T14:44:17.522Z,24.39
2023-05-05T14:47:20.141Z,24.31
2023-05-05T14:50:22.743Z,24.19
2023-05-05T14:53:25.357Z,24.29
2023-05-05T14:56:28.177Z,24.21
2023-05-05T14:59:31.458Z,24.10
2023-05-05T15:02:34.245Z,24.09
2023-05-05T15:05:37.246Z,24.03
2023-05-05T15:08:39.605Z,23.79
2023-05-05T15:11:42.373Z,23.92
2023-05-05T15:14:44.837Z,23.95
2023-05-05T15:17:47.516Z,23.98
2023-05-05T15:20:51.980Z,23.91
2023-05-05T15:23:54.850Z,23.70
2023-05-05T15:26:57.153Z,23.51
2023-05-05T15:29:59.837Z,23.44
2023-05-05T15:33:02.327Z,23.33
2023-05-05T15:36:05.125Z,23.25
2023-05-05T15:39:07.570Z,23.12
2023-05-05T15:42:10.740Z,23.15
2023-05-05T15:45:14.826Z,23.11
2023-05-05T15:48:17.497Z,22.97
2023-05-05T15:51:19.829Z,22.98
2023-05-05T15:54:22.614Z,23.07
2023-05-05T15:57:25.000Z,23.11
2023-05-05T16:00:28.140Z,23.10
2023-05-05T16:03:31.090Z,23.07
2023-05-05T16:06:33.623Z,22.93
2023-05-05T16:09:36.239Z,22.92
2023-05-05T16:12:38.579Z,22.82
2023-05-05T16:15:41.227Z,22.78
2023-05-05T16:18:43.660Z,22.76
2023-05-05T16:21:46.761Z,22.73
2023-05-05T16:24:49.159Z,22.70
2023-05-05T16:27:53.139Z,22.60
2023-05-05T16:30:56.156Z,22.65
2023-05-05T16:33:58.819Z,22.39
2023-05-05T16:37:01.242Z,22.17
2023-05-05T16:40:05.541Z,22.09
2023-05-05T16:43:08.142Z,21.97
2023-05-05T16:46:10.799Z,21.90
2023-05-05T16:49:13.325Z,21.80
2023-05-05T16:52:15.974Z,21.75
2023-05-05T16:55:18.338Z,21.80
2023-05-05T16:58:22.389Z,21.57
2023-05-05T17:01:24.878Z,21.40
2023-05-05T17:04:27.469Z,21.27
2023-05-05T17:07:30.103Z,21.25
2023-05-05T17:10:32.720Z,21.09
2023-05-05T17:13:35.617Z,20.87
2023-05-05T17:16:38.567Z,20.75
2023-05-05T17:19:42.720Z,20.51
2023-05-05T17:22:46.713Z,20.36
2023-05-05T17:25:49.135Z,20.25
2023-05-05T17:28:51.824Z,20.08
2023-05-05T17:31:55.049Z,19.96
2023-05-05T17:34:57.747Z,19.85
2023-05-05T17:38:00.155Z,19.83
2023-05-05T17:41:02.871Z,19.73
2023-05-05T17:44:05.305Z,19.55
2023-05-05T17:47:08.492Z,19.36
2023-05-05T17:50:11.220Z,19.19
2023-05-05T17:53:13.972Z,19.05
2023-05-05T17:56:16.414Z,18.92
2023-05-05T17:59:19.118Z,18.78
2023-05-05T18:02:21.731Z,18.63
2023-05-05T18:05:24.549Z,18.61
2023-05-05T18:08:26.966Z,18.39
2023-05-05T18:11:30.987Z,18.25
2023-05-05T18:14:33.548Z,18.09
2023-05-05T18:17:36.226Z,17.99
2023-05-05T18:20:41.554Z,17.90
2023-05-05T18:23:44.662Z,17.73
2023-05-05T18:26:48.027Z,17.68
2023-05-05T18:29:52.061Z,17.58
2023-05-05T18:32:54.699Z,17.43
2023-05-05T18:35:57.909Z,17.35
2023-05-05T18:39:00.408Z,17.24
2023-05-05T18:42:03.251Z,17.15
2023-05-05T18:45:05.812Z,17.06
2023-05-05T18:48:08.591Z,17.01
2023-05-05T18:51:11.114Z,16.90
2023-05-05T18:54:13.901Z,16.81
2023-05-05T18:57:16.317Z,16.70
2023-05-05T19:00:20.748Z,16.62
2023-05-05T19:03:23.578Z,16.56
2023-05-05T19:06:27.315Z,16.42
2023-05-05T19:09:29.853Z,16.27
2023-05-05T19:12:32.751Z,16.17
2023-05-05T19:15:35.395Z,16.08
2023-05-05T19:18:38.118Z,16.03
2023-05-05T19:21:40.704Z,16.06
2023-05-05T19:24:43.488Z,15.98
2023-05-05T19:27:46.281Z,15.87
2023-05-05T19:30:49.008Z,15.79
2023-05-05T19:33:51.392Z,15.74
2023-05-05T19:36:54.063Z,15.68
2023-05-05T19:39:56.761Z,15.62
2023-05-05T19:42:59.370Z,15.55
2023-05-05T19:46:02.810Z,15.51
2023-05-05T19:49:06.187Z,15.48
2023-05-05T19:52:08.567Z,15.40
2023-05-05T19:55:11.547Z,15.30
2023-05-05T19:58:13.994Z,15.24
2023-05-05T20:01:16.785Z,15.20
2023-05-05T20:04:19.515Z,15.13
2023-05-05T20:07:22.067Z,15.06
2023-05-05T20:10:26.776Z,15.02
2023-05-05T20:13:29.093Z,14.98
2023-05-05T20:16:31.956Z,14.95
2023-05-05T20:19:34.687Z,14.85
2023-05-05T20:22:38.870Z,14.89
2023-05-05T20:25:43.169Z,14.87
2023-05-05T20:28:46.296Z,14.73
2023-05-05T20:31:48.764Z,14.73
2023-05-05T20:34:51.930Z,14.67
2023-05-05T20:37:54.283Z,14.54
2023-05-05T20:40:56.963Z,14.42
2023-05-05T20:43:59.398Z,14.43
2023-05-05T20:47:02.541Z,14.39
2023-05-05T20:50:05.142Z,14.22
2023-05-05T20:53:08.391Z,14.17
2023-05-05T20:56:10.778Z,14.22
2023-05-05T20:59:13.775Z,14.12
2023-05-05T21:02:16.306Z,13.99
2023-05-05T21:05:19.553Z,13.88
2023-05-05T21:08:22.045Z,13.77
2023-05-05T21:11:24.792Z,13.69
2023-05-05T21:14:27.221Z,13.58
2023-05-05T21:17:29.854Z,13.52
2023-05-05T21:20:32.248Z,13.50
2023-05-05T21:23:34.873Z,13.50
2023-05-05T21:26:37.194Z,13.47
2023-05-05T21:29:40.908Z,13.36
2023-05-05T21:32:43.704Z,13.29
2023-05-05T21:35:46.290Z,13.23
2023-05-05T21:38:49.481Z,13.19
2023-05-05T21:41:52.285Z,13.19
2023-05-05T21:44:54.566Z,13.18
2023-05-05T21:47:57.258Z,13.11
2023-05-05T21:50:59.671Z,13.01
2023-05-05T21:54:02.342Z,12.94
2023-05-05T21:57:04.725Z,12.91
2023-05-05T22:00:08.954Z,12.86
2023-05-05T22:03:14.742Z,12.86
2023-05-05T22:06:18.444Z,12.82
2023-05-05T22:09:21.352Z,12.77
2023-05-05T22:12:24.245Z,12.77
2023-05-05T22:15:32.618Z,12.75
2023-05-05T22:18:38.485Z,12.73
2023-05-05T22:21:40.836Z,12.67
2023-05-05T22:24:43.721Z,12.58
2023-05-05T22:27:46.113Z,12.52
2023-05-05T22:30:49.198Z,12.49
2023-05-05T22:33:51.652Z,12.43
2023-05-05T22:36:54.322Z,12.47
2023-05-05T22:39:56.744Z,12.39
2023-05-05T22:42:59.549Z,12.25
2023-05-05T22:46:02.053Z,12.24
2023-05-05T22:49:04.795Z,12.19
2023-05-05T22:52:07.557Z,12.09
2023-05-05T22:55:12.660Z,12.06
2023-05-05T22:58:15.150Z,11.99
2023-05-05T23:01:17.797Z,11.99
2023-05-05T23:04:20.086Z,11.99
2023-05-05T23:07:22.984Z,11.93
2023-05-05T23:10:25.378Z,11.85
2023-05-05T23:13:28.222Z,11.78
2023-05-05T23:16:30.747Z,11.71
2023-05-05T23:19:33.518Z,11.70
2023-05-05T23:22:35.825Z,11.67
2023-05-05T23:25:38.737Z,11.63
2023-05-05T23:28:41.234Z,11.63
2023-05-05T23:31:43.882Z,11.56
2023-05-05T23:34:46.510Z,11.58
2023-05-05T23:37:49.356Z,11.50
2023-05-05T23:40:51.752Z,11.46
2023-05-05T23:43:54.370Z,11.44
2023-05-05T23:46:56.700Z,11.44
2023-05-05T23:49:59.936Z,11.37
2023-05-05T23:53:02.250Z,11.46
2023-05-05T23:56:05.321Z,11.39
2023-05-05T23:59:07.756Z,11.30
